createdAt,value
2023-01-11T00:01:56.345Z,3.81
2023-01-11T00:04:59.272Z,3.75
2023-01-11T00:08:01.766Z,3.71
2023-01-11T00:11:10.487Z,3.67
2023-01-11T00:14:14.952Z,3.64
2023-01-11T00:17:17.883Z,3.63
2023-01-11T00:20:21.860Z,3.62
2023-01-11T00:23:24.676Z,3.63
2023-01-11T00:26:28.039Z,3.60
2023-01-11T00:29:31.817Z,3.60
2023-01-11T00:32:34.319Z,3.59
2023-01-11T00:35:37.202Z,3.60
2023-01-11T00:38:53.722Z,3.58
2023-01-11T00:42:15.819Z,3.63
2023-01-11T00:45:36.861Z,3.60
2023-01-11T00:48:40.040Z,3.65
2023-01-11T00:51:42.981Z,3.65
2023-01-11T00:54:46.072Z,3.65
2023-01-11T00:57:48.814Z,3.63
2023-01-11T01:00:52.247Z,3.63
2023-01-11T01:03:55.324Z,3.61
2023-01-11T01:07:01.147Z,3.60
2023-01-11T01:10:06.698Z,3.61
2023-01-11T01:13:30.432Z,3.55
2023-01-11T01:16:34.824Z,3.53
2023-01-11T01:19:38.865Z,3.49
2023-01-11T01:22:42.175Z,3.47
2023-01-11T01:25:44.919Z,3.45
2023-01-11T01:28:47.775Z,3.41
2023-01-11T01:31:51.092Z,3.38
2023-01-11T01:34:53.767Z,3.34
2023-01-11T01:37:56.567Z,3.31
2023-01-11T01:40:59.123Z,3.26
2023-01-11T01:44:04.934Z,3.29
2023-01-11T01:47:10.671Z,3.29
2023-01-11T01:50:23.545Z,3.26
2023-01-11T01:53:31.976Z,3.23
2023-01-11T01:56:44.633Z,3.24
2023-01-11T01:59:51.970Z,3.21
2023-01-11T02:02:58.741Z,3.18
2023-01-11T02:06:01.562Z,3.16
2023-01-11T02:09:20.609Z,3.15
2023-01-11T02:12:30.197Z,3.13
2023-01-11T02:15:32.880Z,3.07
2023-01-11T02:18:38.456Z,3.06
2023-01-11T02:22:22.541Z,3.06
2023-01-11T02:26:04.205Z,3.07
2023-01-11T02:29:27.931Z,3.10
2023-01-11T02:32:53.226Z,3.11
2023-01-11T02:36:08.576Z,3.09
2023-01-11T02:39:31.261Z,3.03
2023-01-11T02:43:05.473Z,3.01
2023-01-11T02:46:29.719Z,2.99
2023-01-11T02:50:01.477Z,2.94
2023-01-11T02:53:31.553Z,2.90
2023-01-11T02:56:38.977Z,2.85
2023-01-11T02:59:45.565Z,2.82
2023-01-11T03:03:15.448Z,2.81
2023-01-11T03:06:26.086Z,2.78
2023-01-11T03:09:51.250Z,2.75
2023-01-11T03:13:38.175Z,2.73
2023-01-11T03:29:14.090Z,2.63
2023-01-11T03:32:22.262Z,2.59
2023-01-11T03:35:38.309Z,2.54
2023-01-11T03:57:32.397Z,2.48
2023-01-11T04:00:36.872Z,2.48
2023-01-11T04:03:39.910Z,2.47
2023-01-11T04:06:42.421Z,2.47
2023-01-11T04:09:46.135Z,2.49
2023-01-11T04:12:49.151Z,2.47
2023-01-11T04:15:53.957Z,2.46
2023-01-11T04:18:57.300Z,2.45
2023-01-11T04:22:00.484Z,2.45
2023-01-11T04:25:04.515Z,2.44
2023-01-11T04:28:07.890Z,2.44
2023-01-11T04:31:11.713Z,2.45
2023-01-11T04:34:15.350Z,2.43
2023-01-11T04:37:17.958Z,2.38
2023-01-11T04:40:21.081Z,2.32
2023-01-11T04:43:23.659Z,2.27
2023-01-11T04:46:27.071Z,2.23
2023-01-11T04:49:29.814Z,2.26
2023-01-11T04:52:32.759Z,2.26
2023-01-11T04:55:36.612Z,2.25
2023-01-11T04:58:39.423Z,2.20
2023-01-11T05:01:42.660Z,2.17
2023-01-11T05:04:46.761Z,2.11
2023-01-11T05:07:49.713Z,2.09
2023-01-11T05:10:57.204Z,2.10
2023-01-11T05:14:00.188Z,2.13
2023-01-11T05:17:04.005Z,2.13
2023-01-11T05:20:08.791Z,2.10
2023-01-11T05:23:14.914Z,2.03
2023-01-11T05:26:24.462Z,2.00
2023-01-11T05:29:34.634Z,1.95
2023-01-11T05:32:37.072Z,2.01
2023-01-11T05:35:40.140Z,2.05
2023-01-11T05:38:46.715Z,2.06
2023-01-11T05:41:49.942Z,2.06
2023-01-11T05:45:11.808Z,2.07
2023-01-11T05:48:16.520Z,2.04
2023-01-11T05:51:19.317Z,2.00
2023-01-11T05:54:22.457Z,1.95
2023-01-11T05:57:29.201Z,1.89
2023-01-11T06:00:33.488Z,1.85
2023-01-11T06:03:44.604Z,1.81
2023-01-11T06:06:47.885Z,1.79
2023-01-11T06:09:51.796Z,1.73
2023-01-11T06:13:15.481Z,1.70
2023-01-11T06:16:30.552Z,1.71
2023-01-11T06:19:33.183Z,1.72
2023-01-11T06:22:36.111Z,1.73
2023-01-11T06:25:39.294Z,1.72
2023-01-11T06:28:45.322Z,1.74
2023-01-11T06:31:49.328Z,1.73
2023-01-11T06:34:52.105Z,1.71
2023-01-11T06:37:55.841Z,1.69
2023-01-11T06:41:02.401Z,1.73
2023-01-11T06:44:07.257Z,1.73
2023-01-11T06:47:10.144Z,1.74
2023-01-11T06:50:18.498Z,1.77
2023-01-11T06:53:28.777Z,1.73
2023-01-11T06:56:37.500Z,1.68
2023-01-11T06:59:43.601Z,1.69
2023-01-11T07:02:48.722Z,1.66
2023-01-11T07:05:54.471Z,1.54
2023-01-11T07:08:57.043Z,2.13
2023-01-11T07:12:04.199Z,2.91
2023-01-11T07:15:09.128Z,2.75
2023-01-11T07:18:18.774Z,2.33
2023-01-11T07:21:22.585Z,3.15
2023-01-11T07:24:26.716Z,4.52
2023-01-11T07:27:29.731Z,4.46
2023-01-11T07:30:55.408Z,3.83
2023-01-11T07:33:59.938Z,3.47
2023-01-11T07:37:28.412Z,3.58
2023-01-11T07:40:32.338Z,3.61
2023-01-11T07:43:37.151Z,3.56
2023-01-11T07:46:40.656Z,3.31
2023-01-11T07:49:44.746Z,3.13
2023-01-11T07:52:49.396Z,3.00
2023-01-11T07:55:55.680Z,2.85
2023-01-11T07:58:58.835Z,2.77
2023-01-11T08:02:05.419Z,2.79
2023-01-11T08:05:10.125Z,2.96
2023-01-11T08:08:14.685Z,3.67
2023-01-11T08:11:43.458Z,3.75
2023-01-11T08:14:46.663Z,3.75
2023-01-11T08:17:49.953Z,3.71
2023-01-11T08:20:53.585Z,3.83
2023-01-11T08:23:58.765Z,3.95
2023-01-11T08:27:04.435Z,4.11
2023-01-11T08:30:08.633Z,4.28
2023-01-11T08:33:12.382Z,4.44
2023-01-11T08:36:20.400Z,4.57
2023-01-11T08:39:25.296Z,4.59
2023-01-11T08:42:34.842Z,4.53
2023-01-11T08:45:39.677Z,4.37
2023-01-11T08:48:46.973Z,4.23
2023-01-11T08:51:52.652Z,4.10
2023-01-11T08:54:56.924Z,4.00
2023-01-11T08:58:03.973Z,3.96
2023-01-11T09:01:09.701Z,3.90
2023-01-11T09:04:24.732Z,3.85
2023-01-11T09:07:28.670Z,3.75
2023-01-11T09:10:36.057Z,3.69
2023-01-11T09:13:39.841Z,3.67
2023-01-11T09:16:44.105Z,3.59
2023-01-11T09:19:47.663Z,3.55
2023-01-11T09:22:56.941Z,3.49
2023-01-11T09:26:03.959Z,3.45
2023-01-11T09:29:08.572Z,3.73
2023-01-11T09:32:13.509Z,4.65
2023-01-11T09:35:18.506Z,5.86
2023-01-11T09:38:30.031Z,7.10
2023-01-11T09:41:45.647Z,7.98
2023-01-11T09:44:52.158Z,8.78
2023-01-11T09:48:15.489Z,9.01
2023-01-11T09:51:27.283Z,9.01
2023-01-11T09:54:30.886Z,9.12
2023-01-11T09:57:54.877Z,9.56
2023-01-11T10:01:39.040Z,10.05
2023-01-11T10:05:00.970Z,10.51
2023-01-11T10:18:37.723Z,11.50
2023-01-11T10:19:35.070Z,11.14
2023-01-11T10:22:47.124Z,10.62
2023-01-11T10:25:57.458Z,10.41
2023-01-11T10:29:15.912Z,10.47
2023-01-11T10:32:57.660Z,10.12
2023-01-11T10:36:52.524Z,9.76
2023-01-11T10:41:01.965Z,10.11
2023-01-11T10:44:22.621Z,9.87
2023-01-11T10:47:32.094Z,9.83
2023-01-11T10:50:44.922Z,9.87
2023-01-11T10:54:14.299Z,9.66
2023-01-11T10:57:27.149Z,9.45
2023-01-11T11:01:08.667Z,9.21
2023-01-11T11:04:54.451Z,9.20
2023-01-11T11:08:13.810Z,9.08
2023-01-11T11:11:37.713Z,8.90
2023-01-11T11:14:45.401Z,8.84
2023-01-11T11:17:54.282Z,8.71
2023-01-11T11:21:22.660Z,8.66
2023-01-11T11:25:00.051Z,8.56
2023-01-11T11:28:06.073Z,8.54
2023-01-11T11:31:13.590Z,8.58
2023-01-11T11:34:21.800Z,8.60
2023-01-11T11:37:33.410Z,8.61
2023-01-11T11:41:18.478Z,8.69
2023-01-11T11:44:29.711Z,8.56
2023-01-11T11:47:33.908Z,8.51
2023-01-11T11:50:45.779Z,8.63
2023-01-11T11:54:00.593Z,8.71
2023-01-11T11:57:28.133Z,8.66
2023-01-11T12:00:40.751Z,8.71
2023-01-11T12:03:44.194Z,8.78
2023-01-11T12:07:24.121Z,8.74
2023-01-11T12:10:32.448Z,8.77
2023-01-11T12:13:45.016Z,8.63
2023-01-11T12:16:54.984Z,8.53
2023-01-11T12:19:58.038Z,8.54
2023-01-11T12:23:22.204Z,8.56
2023-01-11T12:26:38.536Z,8.52
2023-01-11T12:29:50.683Z,8.42
2023-01-11T12:32:59.511Z,8.40
2023-01-11T12:36:08.442Z,8.37
2023-01-11T12:39:12.444Z,8.38
2023-01-11T12:42:49.440Z,8.28
2023-01-11T12:46:15.565Z,8.25
2023-01-11T12:49:40.470Z,8.15
2023-01-11T12:52:52.117Z,8.14
2023-01-11T12:56:13.019Z,8.10
2023-01-11T12:59:22.578Z,8.12
2023-01-11T13:02:55.631Z,8.07
2023-01-11T13:06:08.471Z,8.00
2023-01-11T13:09:45.244Z,7.95
2023-01-11T13:13:15.352Z,7.95
2023-01-11T13:16:38.553Z,7.96
2023-01-11T13:20:12.656Z,7.95
2023-01-11T13:23:33.585Z,7.97
2023-01-11T13:26:40.753Z,7.97
2023-01-11T13:29:50.575Z,7.95
2023-01-11T13:32:58.435Z,7.93
2023-01-11T13:36:22.906Z,7.93
2023-01-11T13:39:47.676Z,7.88
2023-01-11T13:43:03.646Z,7.83
2023-01-11T13:46:35.691Z,7.82
2023-01-11T13:50:00.085Z,7.77
2023-01-11T13:53:28.467Z,7.73
2023-01-11T13:56:45.437Z,7.66
2023-01-11T14:00:02.352Z,7.64
2023-01-11T14:03:25.924Z,7.60
2023-01-11T14:06:41.081Z,7.56
2023-01-11T14:10:15.998Z,7.50
2023-01-11T14:14:06.337Z,7.47
2023-01-11T14:17:28.599Z,7.40
2023-01-11T14:21:13.546Z,7.32
2023-01-11T14:24:20.459Z,7.28
2023-01-11T14:28:00.505Z,7.22
2023-01-11T14:31:46.552Z,7.16
2023-01-11T14:35:02.423Z,7.09
2023-01-11T14:38:25.523Z,7.03
2023-01-11T14:42:32.203Z,6.97
2023-01-11T14:45:50.165Z,6.86
2023-01-11T14:49:10.808Z,6.72
2023-01-11T14:52:39.177Z,6.65
2023-01-11T14:55:49.917Z,6.54
2023-01-11T14:59:06.911Z,6.42
2023-01-11T15:02:28.518Z,6.34
2023-01-11T15:05:38.211Z,6.22
2023-01-11T15:08:54.934Z,6.10
2023-01-11T15:12:12.915Z,5.97
2023-01-11T15:15:47.929Z,5.83
2023-01-11T15:19:06.000Z,5.70
2023-01-11T15:22:24.601Z,5.56
2023-01-11T15:25:33.647Z,5.45
2023-01-11T15:29:08.432Z,5.36
2023-01-11T15:32:29.371Z,5.24
2023-01-11T15:35:41.718Z,5.10
2023-01-11T15:39:13.522Z,4.98
2023-01-11T15:42:28.391Z,4.86
2023-01-11T15:46:09.765Z,4.74
2023-01-11T15:49:35.431Z,4.63
2023-01-11T15:53:05.490Z,4.50
2023-01-11T15:56:47.093Z,4.36
2023-01-11T15:59:55.845Z,4.29
2023-01-11T16:03:29.076Z,4.21
2023-01-11T16:06:37.585Z,4.13
2023-01-11T16:10:19.387Z,4.00
2023-01-11T16:13:51.332Z,3.89
2023-01-11T16:17:14.336Z,3.81
2023-01-11T16:20:29.439Z,3.75
2023-01-11T16:23:45.439Z,3.70
2023-01-11T16:26:53.548Z,3.59
2023-01-11T16:30:00.609Z,3.52
2023-01-11T16:33:22.068Z,3.43
2023-01-11T16:36:26.918Z,3.38
2023-01-11T16:39:35.389Z,3.31
2023-01-11T16:43:00.443Z,3.27
2023-01-11T16:46:05.851Z,3.18
2023-01-11T16:49:10.695Z,3.08
2023-01-11T16:52:32.441Z,3.04
2023-01-11T16:55:55.514Z,3.02
2023-01-11T16:59:19.451Z,2.96
2023-01-11T17:02:33.542Z,2.92
2023-01-11T17:05:39.844Z,2.90
2023-01-11T17:09:06.696Z,2.85
2023-01-11T17:12:27.398Z,2.79
2023-01-11T17:15:52.637Z,2.76
2023-01-11T17:19:01.258Z,2.72
2023-01-11T17:22:17.453Z,2.69
2023-01-11T17:25:26.186Z,2.66
2023-01-11T17:28:40.318Z,2.63
2023-01-11T17:31:44.565Z,2.64
2023-01-11T17:34:53.441Z,2.63
2023-01-11T17:37:59.963Z,2.58
2023-01-11T17:41:27.583Z,2.59
2023-01-11T17:44:59.368Z,2.60
2023-01-11T17:48:23.361Z,2.59
2023-01-11T17:51:35.280Z,2.57
2023-01-11T17:55:04.445Z,2.60
2023-01-11T17:58:19.472Z,2.59
2023-01-11T18:01:37.529Z,2.59
2023-01-11T18:04:44.414Z,2.56
2023-01-11T18:07:59.286Z,2.53
2023-01-11T18:11:06.927Z,2.49
2023-01-11T18:14:19.386Z,2.38
2023-01-11T18:17:43.437Z,2.34
2023-01-11T18:20:57.308Z,2.29
2023-01-11T18:24:16.295Z,2.26
2023-01-11T18:27:30.520Z,2.18
2023-01-11T18:30:38.498Z,2.07
2023-01-11T18:33:49.742Z,2.02
2023-01-11T18:37:03.424Z,1.94
2023-01-11T18:40:17.536Z,1.88
2023-01-11T18:43:32.520Z,1.84
2023-01-11T18:46:37.687Z,1.76
2023-01-11T18:49:48.280Z,1.70
2023-01-11T18:53:03.503Z,1.65
2023-01-11T18:56:17.638Z,1.60
2023-01-11T18:59:21.849Z,1.62
2023-01-11T19:02:24.733Z,1.62
2023-01-11T19:05:30.429Z,1.55
2023-01-11T19:08:33.697Z,1.54
2023-01-11T19:11:38.062Z,1.57
2023-01-11T19:14:43.767Z,1.62
2023-01-11T19:17:51.607Z,1.64
2023-01-11T19:21:02.321Z,1.66
2023-01-11T19:24:11.532Z,1.69
2023-01-11T19:27:31.293Z,1.73
2023-01-11T19:30:49.425Z,1.82
2023-01-11T19:34:00.141Z,1.88
2023-01-11T19:37:05.852Z,1.92
2023-01-11T19:40:17.457Z,1.97
2023-01-11T19:43:34.680Z,1.97
2023-01-11T19:46:39.793Z,2.03
2023-01-11T19:49:50.571Z,2.08
2023-01-11T19:52:58.493Z,2.08
2023-01-11T19:56:18.281Z,2.02
2023-01-11T19:59:28.626Z,1.99
2023-01-11T20:02:45.401Z,1.91
2023-01-11T20:05:52.483Z,1.83
2023-01-11T20:09:00.509Z,1.72
2023-01-11T20:12:16.587Z,1.66
2023-01-11T20:15:21.378Z,1.60
2023-01-11T20:18:26.319Z,1.51
2023-01-11T20:21:36.526Z,1.38
2023-01-11T20:24:42.671Z,1.31
2023-01-11T20:27:49.381Z,1.18
2023-01-11T20:31:11.633Z,1.11
2023-01-11T20:34:17.043Z,1.10
2023-01-11T20:37:31.354Z,1.07
2023-01-11T20:40:42.471Z,1.04
2023-01-11T20:43:59.267Z,0.99
2023-01-11T20:47:07.628Z,0.89
2023-01-11T20:50:13.599Z,0.83
2023-01-11T20:53:24.704Z,0.77
2023-01-11T20:56:39.366Z,0.79
2023-01-11T20:59:42.827Z,0.77
2023-01-11T21:02:49.349Z,0.71
2023-01-11T21:05:59.362Z,0.68
2023-01-11T21:09:12.533Z,0.69
2023-01-11T21:12:20.646Z,0.74
2023-01-11T21:15:38.348Z,0.85
2023-01-11T21:18:44.212Z,0.86
2023-01-11T21:21:52.430Z,0.93
2023-01-11T21:24:57.675Z,1.02
2023-01-11T21:28:09.525Z,1.10
2023-01-11T21:31:14.095Z,1.14
2023-01-11T21:34:17.672Z,1.20
2023-01-11T21:37:24.613Z,1.20
2023-01-11T21:40:31.546Z,1.21
2023-01-11T21:43:40.432Z,1.22
2023-01-11T21:47:01.298Z,1.14
2023-01-11T21:50:11.667Z,1.15
2023-01-11T21:53:14.631Z,1.08
2023-01-11T21:56:19.440Z,1.06
2023-01-11T21:59:26.709Z,1.11
2023-01-11T22:02:38.703Z,1.03
2023-01-11T22:05:43.980Z,0.99
2023-01-11T22:08:48.485Z,1.00
2023-01-11T22:11:51.783Z,1.03
2023-01-11T22:14:55.925Z,1.13
2023-01-11T22:18:01.114Z,1.17
2023-01-11T22:21:15.318Z,1.18
2023-01-11T22:24:20.844Z,1.19
2023-01-11T22:27:23.538Z,1.19
2023-01-11T22:30:26.865Z,1.20
2023-01-11T22:33:32.394Z,1.18
2023-01-11T22:36:35.388Z,1.13
2023-01-11T22:39:41.533Z,1.02
2023-01-11T22:42:44.556Z,0.95
2023-01-11T22:45:59.450Z,0.76
2023-01-11T22:49:07.288Z,0.60
2023-01-11T22:52:09.824Z,0.51
2023-01-11T22:55:13.349Z,0.51
2023-01-11T22:58:16.278Z,0.44
2023-01-11T23:01:27.802Z,0.41
2023-01-11T23:04:33.267Z,0.40
2023-01-11T23:07:36.461Z,0.30
2023-01-11T23:10:41.006Z,0.22
2023-01-11T23:13:55.366Z,0.26
2023-01-11T23:17:01.891Z,0.26
2023-01-11T23:20:05.836Z,0.26
2023-01-11T23:23:10.475Z,0.25
2023-01-11T23:26:17.820Z,0.27
2023-01-11T23:29:20.432Z,0.21
2023-01-11T23:32:29.748Z,0.11
2023-01-11T23:35:32.352Z,0.09
2023-01-11T23:38:36.249Z,0.09
2023-01-11T23:41:57.873Z,0.08
2023-01-11T23:45:01.107Z,0.07
2023-01-11T23:48:08.266Z,-0.03
2023-01-11T23:51:11.631Z,-0.13
2023-01-11T23:54:14.374Z,-0.15
2023-01-11T23:57:20.313Z,-0.08
